sensor_id;sensor_type;location;lat;lon;timestamp;P1;durP1;ratioP1;P2;durP2;ratioP2
4903;SDS011;2467;48.142;11.616;2023-05-23T00:00:22;12.75;;;11.73;;
4903;SDS011;2467;48.142;11.616;2023-05-23T00:00:54;12.60;;;11.50;;
4903;SDS011;2467;48.142;11.616;2023-05-23T00:01:27;13.23;;;12.15;;
4903;SDS011;2467;48.142;11.616;2023-05-23T00:02:01;11.60;;;10.50;;
4903;SDS011;2467;48.142;11.616;2023-05-23T00:02:38;12.15;;;11.15;;
4903;SDS011;2467;48.142;11.616;2023-05-23T00:03:10;12.95;;;11.93;;
4903;SDS011;2467;48.142;11.616;2023-05-23T00:03:44;12.25;;;11.30;;
4903;SDS011;2467;48.142;11.616;2023-05-23T00:04:17;12.18;;;11.27;;
4903;SDS011;2467;48.142;11.616;2023-05-23T00:04:50;12.60;;;11.57;;
4903;SDS011;2467;48.142;11.616;2023-05-23T00:05:28;12.35;;;11.25;;
4903;SDS011;2467;48.142;11.616;2023-05-23T00:06:00;12.20;;;11.20;;
4903;SDS011;2467;48.142;11.616;2023-05-23T00:06:32;13.10;;;11.70;;
4903;SDS011;2467;48.142;11.616;2023-05-23T00:07:06;12.80;;;11.60;;
4903;SDS011;2467;48.142;11.616;2023-05-23T00:07:39;12.88;;;11.82;;
4903;SDS011;2467;48.142;11.616;2023-05-23T00:08:11;11.82;;;10.82;;
4903;SDS011;2467;48.142;11.616;2023-05-23T00:08:43;12.32;;;11.13;;
4903;SDS011;2467;48.142;11.616;2023-05-23T00:09:17;13.23;;;12.13;;
4903;SDS011;2467;48.142;11.616;2023-05-23T00:09:49;11.90;;;10.82;;
4903;SDS011;2467;48.142;11.616;2023-05-23T00:10:22;12.45;;;11.35;;
4903;SDS011;2467;48.142;11.616;2023-05-23T00:10:53;13.10;;;12.00;;
4903;SDS011;2467;48.142;11.616;2023-05-23T00:11:25;13.32;;;12.35;;
4903;SDS011;2467;48.142;11.616;2023-05-23T00:11:59;12.80;;;11.60;;
4903;SDS011;2467;48.142;11.616;2023-05-23T00:12:31;12.88;;;11.85;;
4903;SDS011;2467;48.142;11.616;2023-05-23T00:13:03;11.25;;;10.43;;
4903;SDS011;2467;48.142;11.616;2023-05-23T00:13:40;12.68;;;11.57;;
4903;SDS011;2467;48.142;11.616;2023-05-23T00:14:12;12.50;;;11.60;;
4903;SDS011;2467;48.142;11.616;2023-05-23T00:14:45;12.07;;;11.07;;
4903;SDS011;2467;48.142;11.616;2023-05-23T00:15:18;12.13;;;11.23;;
4903;SDS011;2467;48.142;11.616;2023-05-23T00:15:50;11.10;;;10.18;;
4903;SDS011;2467;48.142;11.616;2023-05-23T00:16:22;11.55;;;10.55;;
4903;SDS011;2467;48.142;11.616;2023-05-23T00:16:55;11.75;;;10.68;;
4903;SDS011;2467;48.142;11.616;2023-05-23T00:17:27;12.88;;;11.82;;
4903;SDS011;2467;48.142;11.616;2023-05-23T00:17:59;13.10;;;12.00;;
4903;SDS011;2467;48.142;11.616;2023-05-23T00:18:31;11.93;;;11.02;;
4903;SDS011;2467;48.142;11.616;2023-05-23T00:19:05;13.18;;;11.65;;
4903;SDS011;2467;48.142;11.616;2023-05-23T00:19:38;11.63;;;10.77;;
4903;SDS011;2467;48.142;11.616;2023-05-23T00:20:10;11.82;;;10.85;;
4903;SDS011;2467;48.142;11.616;2023-05-23T00:20:43;11.68;;;10.70;;
4903;SDS011;2467;48.142;11.616;2023-05-23T00:21:16;12.00;;;11.00;;
4903;SDS011;2467;48.142;11.616;2023-05-23T00:21:48;12.93;;;10.73;;
4903;SDS011;2467;48.142;11.616;2023-05-23T00:22:23;11.30;;;10.40;;
4903;SDS011;2467;48.142;11.616;2023-05-23T00:22:55;11.82;;;10.65;;
4903;SDS011;2467;48.142;11.616;2023-05-23T00:23:28;11.93;;;11.02;;
4903;SDS011;2467;48.142;11.616;2023-05-23T00:24:04;11.68;;;10.70;;
4903;SDS011;2467;48.142;11.616;2023-05-23T00:24:37;10.95;;;10.05;;
4903;SDS011;2467;48.142;11.616;2023-05-23T00:25:09;11.30;;;10.40;;
4903;SDS011;2467;48.142;11.616;2023-05-23T00:25:42;10.98;;;10.15;;
4903;SDS011;2467;48.142;11.616;2023-05-23T00:26:18;13.30;;;11.98;;
4903;SDS011;2467;48.142;11.616;2023-05-23T00:26:50;12.75;;;11.65;;
4903;SDS011;2467;48.142;11.616;2023-05-23T00:27:23;11.75;;;10.63;;
4903;SDS011;2467;48.142;11.616;2023-05-23T00:27:54;12.13;;;11.05;;
4903;SDS011;2467;48.142;11.616;2023-05-23T00:28:26;11.30;;;10.45;;
4903;SDS011;2467;48.142;11.616;2023-05-23T00:28:59;11.95;;;11.05;;
4903;SDS011;2467;48.142;11.616;2023-05-23T00:29:31;10.90;;;9.95;;
4903;SDS011;2467;48.142;11.616;2023-05-23T00:30:03;10.73;;;9.77;;
4903;SDS011;2467;48.142;11.616;2023-05-23T00:30:37;10.93;;;10.13;;
4903;SDS011;2467;48.142;11.616;2023-05-23T00:31:09;13.05;;;11.85;;
4903;SDS011;2467;48.142;11.616;2023-05-23T00:31:41;11.88;;;10.88;;
4903;SDS011;2467;48.142;11.616;2023-05-23T00:32:16;11.88;;;10.75;;
4903;SDS011;2467;48.142;11.616;2023-05-23T00:32:48;11.65;;;10.65;;
4903;SDS011;2467;48.142;11.616;2023-05-23T00:33:20;11.00;;;10.13;;
4903;SDS011;2467;48.142;11.616;2023-05-23T00:33:53;11.38;;;10.48;;
4903;SDS011;2467;48.142;11.616;2023-05-23T00:34:26;12.48;;;11.48;;
4903;SDS011;2467;48.142;11.616;2023-05-23T00:34:58;11.85;;;10.70;;
4903;SDS011;2467;48.142;11.616;2023-05-23T00:35:31;12.23;;;11.13;;
4903;SDS011;2467;48.142;11.616;2023-05-23T00:36:03;10.98;;;10.07;;
4903;SDS011;2467;48.142;11.616;2023-05-23T00:36:36;13.45;;;11.68;;
4903;SDS011;2467;48.142;11.616;2023-05-23T00:37:08;12.77;;;11.60;;
4903;SDS011;2467;48.142;11.616;2023-05-23T00:37:41;12.98;;;11.90;;
4903;SDS011;2467;48.142;11.616;2023-05-23T00:38:13;12.27;;;11.27;;
4903;SDS011;2467;48.142;11.616;2023-05-23T00:38:47;11.90;;;10.80;;
4903;SDS011;2467;48.142;11.616;2023-05-23T00:39:19;13.23;;;11.93;;
4903;SDS011;2467;48.142;11.616;2023-05-23T00:39:53;11.43;;;10.18;;
4903;SDS011;2467;48.142;11.616;2023-05-23T00:40:26;12.07;;;10.98;;
4903;SDS011;2467;48.142;11.616;2023-05-23T00:40:58;12.90;;;11.82;;
4903;SDS011;2467;48.142;11.616;2023-05-23T00:41:30;11.52;;;10.63;;
4903;SDS011;2467;48.142;11.616;2023-05-23T00:42:03;12.15;;;11.05;;
4903;SDS011;2467;48.142;11.616;2023-05-23T00:42:36;11.60;;;10.63;;
4903;SDS011;2467;48.142;11.616;2023-05-23T00:43:09;12.40;;;11.35;;
4903;SDS011;2467;48.142;11.616;2023-05-23T00:43:41;11.82;;;10.55;;
4903;SDS011;2467;48.142;11.616;2023-05-23T00:44:13;14.27;;;11.77;;
4903;SDS011;2467;48.142;11.616;2023-05-23T00:44:45;11.95;;;11.05;;
4903;SDS011;2467;48.142;11.616;2023-05-23T00:45:18;12.93;;;11.82;;
4903;SDS011;2467;48.142;11.616;2023-05-23T00:45:50;13.10;;;12.00;;
4903;SDS011;2467;48.142;11.616;2023-05-23T00:46:22;11.95;;;11.05;;
4903;SDS011;2467;48.142;11.616;2023-05-23T00:46:55;12.75;;;11.75;;
4903;SDS011;2467;48.142;11.616;2023-05-23T00:47:29;12.35;;;11.27;;
4903;SDS011;2467;48.142;11.616;2023-05-23T00:48:02;12.63;;;11.60;;
4903;SDS011;2467;48.142;11.616;2023-05-23T00:48:34;11.38;;;10.48;;
4903;SDS011;2467;48.142;11.616;2023-05-23T00:49:08;11.45;;;10.55;;
4903;SDS011;2467;48.142;11.616;2023-05-23T00:49:40;12.13;;;11.13;;
4903;SDS011;2467;48.142;11.616;2023-05-23T00:50:13;13.48;;;12.30;;
4903;SDS011;2467;48.142;11.616;2023-05-23T00:50:47;12.80;;;11.65;;
4903;SDS011;2467;48.142;11.616;2023-05-23T00:51:19;12.82;;;11.60;;
4903;SDS011;2467;48.142;11.616;2023-05-23T00:51:51;13.68;;;12.48;;
4903;SDS011;2467;48.142;11.616;2023-05-23T00:52:24;12.18;;;11.07;;
4903;SDS011;2467;48.142;11.616;2023-05-23T00:52:56;12.00;;;10.98;;
4903;SDS011;2467;48.142;11.616;2023-05-23T00:53:30;14.57;;;11.60;;
4903;SDS011;2467;48.142;11.616;2023-05-23T00:54:04;12.77;;;11.52;;
4903;SDS011;2467;48.142;11.616;2023-05-23T00:54:37;11.52;;;10.63;;
4903;SDS011;2467;48.142;11.616;2023-05-23T00:55:11;12.68;;;11.55;;
4903;SDS011;2467;48.142;11.616;2023-05-23T00:55:43;11.20;;;10.43;;
4903;SDS011;2467;48.142;11.616;2023-05-23T00:56:16;11.15;;;10.23;;
4903;SDS011;2467;48.142;11.616;2023-05-23T00:56:49;13.55;;;12.20;;
4903;SDS011;2467;48.142;11.616;2023-05-23T00:57:21;11.90;;;10.90;;
4903;SDS011;2467;48.142;11.616;2023-05-23T00:57:53;12.48;;;11.38;;
4903;SDS011;2467;48.142;11.616;2023-05-23T00:58:27;11.45;;;10.52;;
4903;SDS011;2467;48.142;11.616;2023-05-23T00:58:59;12.57;;;11.48;;
4903;SDS011;2467;48.142;11.616;2023-05-23T00:59:31;12.05;;;11.05;;
4903;SDS011;2467;48.142;11.616;2023-05-23T01:00:07;12.85;;;11.82;;
4903;SDS011;2467;48.142;11.616;2023-05-23T01:00:40;11.57;;;10.77;;
4903;SDS011;2467;48.142;11.616;2023-05-23T01:01:12;11.43;;;10.55;;
4903;SDS011;2467;48.142;11.616;2023-05-23T01:01:47;11.88;;;10.88;;
4903;SDS011;2467;48.142;11.616;2023-05-23T01:02:21;12.00;;;10.88;;
4903;SDS011;2467;48.142;11.616;2023-05-23T01:02:53;12.88;;;11.88;;
4903;SDS011;2467;48.142;11.616;2023-05-23T01:03:26;12.85;;;11.85;;
4903;SDS011;2467;48.142;11.616;2023-05-23T01:03:59;12.52;;;11.52;;
4903;SDS011;2467;48.142;11.616;2023-05-23T01:04:33;12.13;;;11.00;;
4903;SDS011;2467;48.142;11.616;2023-05-23T01:05:07;12.25;;;11.25;;
4903;SDS011;2467;48.142;11.616;2023-05-23T01:05:40;13.20;;;12.20;;
4903;SDS011;2467;48.142;11.616;2023-05-23T01:06:12;12.32;;;11.23;;
4903;SDS011;2467;48.142;11.616;2023-05-23T01:06:45;10.60;;;9.90;;
4903;SDS011;2467;48.142;11.616;2023-05-23T01:07:19;13.30;;;12.10;;
4903;SDS011;2467;48.142;11.616;2023-05-23T01:07:51;11.55;;;10.65;;
4903;SDS011;2467;48.142;11.616;2023-05-23T01:08:25;12.95;;;11.82;;
4903;SDS011;2467;48.142;11.616;2023-05-23T01:08:59;11.95;;;10.85;;
4903;SDS011;2467;48.142;11.616;2023-05-23T01:09:32;11.93;;;10.93;;
4903;SDS011;2467;48.142;11.616;2023-05-23T01:10:06;11.43;;;10.52;;
4903;SDS011;2467;48.142;11.616;2023-05-23T01:10:40;12.82;;;11.80;;
4903;SDS011;2467;48.142;11.616;2023-05-23T01:11:14;11.52;;;10.52;;
4903;SDS011;2467;48.142;11.616;2023-05-23T01:11:57;11.88;;;10.77;;
4903;SDS011;2467;48.142;11.616;2023-05-23T01:12:40;13.00;;;11.82;;
4903;SDS011;2467;48.142;11.616;2023-05-23T01:13:23;12.82;;;11.82;;
4903;SDS011;2467;48.142;11.616;2023-05-23T01:14:04;10.50;;;9.60;;
4903;SDS011;2467;48.142;11.616;2023-05-23T01:14:44;11.65;;;10.80;;
4903;SDS011;2467;48.142;11.616;2023-05-23T01:15:24;13.13;;;12.00;;
4903;SDS011;2467;48.142;11.616;2023-05-23T01:16:00;12.05;;;11.15;;
4903;SDS011;2467;48.142;11.616;2023-05-23T01:16:38;11.27;;;10.25;;
4903;SDS011;2467;48.142;11.616;2023-05-23T01:17:20;11.27;;;10.35;;
4903;SDS011;2467;48.142;11.616;2023-05-23T01:17:58;12.18;;;11.18;;
4903;SDS011;2467;48.142;11.616;2023-05-23T01:18:35;11.70;;;10.80;;
4903;SDS011;2467;48.142;11.616;2023-05-23T01:19:15;13.32;;;12.27;;
4903;SDS011;2467;48.142;11.616;2023-05-23T01:19:58;11.60;;;10.60;;
4903;SDS011;2467;48.142;11.616;2023-05-23T01:20:37;12.88;;;11.68;;
4903;SDS011;2467;48.142;11.616;2023-05-23T01:21:16;11.10;;;10.20;;
4903;SDS011;2467;48.142;11.616;2023-05-23T01:21:50;13.05;;;11.85;;
4903;SDS011;2467;48.142;11.616;2023-05-23T01:22:34;12.25;;;11.35;;
4903;SDS011;2467;48.142;11.616;2023-05-23T01:24:31;12.32;;;11.00;;
4903;SDS011;2467;48.142;11.616;2023-05-23T01:25:10;13.38;;;12.20;;
4903;SDS011;2467;48.142;11.616;2023-05-23T01:26:01;12.18;;;11.18;;
4903;SDS011;2467;48.142;11.616;2023-05-23T01:26:40;12.93;;;11.82;;
4903;SDS011;2467;48.142;11.616;2023-05-23T01:28:14;13.43;;;12.02;;
4903;SDS011;2467;48.142;11.616;2023-05-23T01:28:51;13.20;;;12.00;;
4903;SDS011;2467;48.142;11.616;2023-05-23T01:29:27;12.70;;;11.63;;
4903;SDS011;2467;48.142;11.616;2023-05-23T01:30:03;12.18;;;11.18;;
4903;SDS011;2467;48.142;11.616;2023-05-23T01:30:39;12.70;;;11.60;;
4903;SDS011;2467;48.142;11.616;2023-05-23T01:31:12;12.90;;;11.40;;
4903;SDS011;2467;48.142;11.616;2023-05-23T01:31:47;12.48;;;11.38;;
4903;SDS011;2467;48.142;11.616;2023-05-23T01:32:23;13.10;;;12.00;;
4903;SDS011;2467;48.142;11.616;2023-05-23T01:32:57;12.50;;;11.50;;
4903;SDS011;2467;48.142;11.616;2023-05-23T01:33:31;11.30;;;10.43;;
4903;SDS011;2467;48.142;11.616;2023-05-23T01:34:04;11.65;;;10.75;;
4903;SDS011;2467;48.142;11.616;2023-05-23T01:34:38;13.70;;;12.13;;
4903;SDS011;2467;48.142;11.616;2023-05-23T01:35:11;12.48;;;11.48;;
4903;SDS011;2467;48.142;11.616;2023-05-23T01:35:45;11.98;;;11.15;;
4903;SDS011;2467;48.142;11.616;2023-05-23T01:36:17;11.98;;;10.98;;
4903;SDS011;2467;48.142;11.616;2023-05-23T01:36:52;12.80;;;11.77;;
4903;SDS011;2467;48.142;11.616;2023-05-23T01:37:26;12.52;;;11.52;;
4903;SDS011;2467;48.142;11.616;2023-05-23T01:38:00;12.75;;;11.75;;
4903;SDS011;2467;48.142;11.616;2023-05-23T01:38:31;14.35;;;11.45;;
4903;SDS011;2467;48.142;11.616;2023-05-23T01:39:04;12.90;;;11.60;;
4903;SDS011;2467;48.142;11.616;2023-05-23T01:39:36;12.07;;;11.07;;
4903;SDS011;2467;48.142;11.616;2023-05-23T01:40:09;12.65;;;11.45;;
4903;SDS011;2467;48.142;11.616;2023-05-23T01:40:42;13.05;;;11.90;;
4903;SDS011;2467;48.142;11.616;2023-05-23T01:41:14;13.45;;;12.00;;
4903;SDS011;2467;48.142;11.616;2023-05-23T01:41:46;12.48;;;11.48;;
4903;SDS011;2467;48.142;11.616;2023-05-23T01:42:20;13.02;;;12.02;;
4903;SDS011;2467;48.142;11.616;2023-05-23T01:42:54;13.45;;;12.25;;
4903;SDS011;2467;48.142;11.616;2023-05-23T01:43:27;12.52;;;11.45;;
4903;SDS011;2467;48.142;11.616;2023-05-23T01:44:00;13.43;;;12.05;;
4903;SDS011;2467;48.142;11.616;2023-05-23T01:44:33;12.95;;;11.85;;
4903;SDS011;2467;48.142;11.616;2023-05-23T01:45:06;12.10;;;11.10;;
4903;SDS011;2467;48.142;11.616;2023-05-23T01:45:40;13.15;;;11.95;;
4903;SDS011;2467;48.142;11.616;2023-05-23T01:46:13;12.52;;;11.52;;
4903;SDS011;2467;48.142;11.616;2023-05-23T01:46:47;12.10;;;11.10;;
4903;SDS011;2467;48.142;11.616;2023-05-23T01:47:20;12.07;;;11.07;;
4903;SDS011;2467;48.142;11.616;2023-05-23T01:47:52;12.20;;;11.10;;
4903;SDS011;2467;48.142;11.616;2023-05-23T01:48:26;13.63;;;12.27;;
4903;SDS011;2467;48.142;11.616;2023-05-23T01:49:00;11.98;;;11.05;;
4903;SDS011;2467;48.142;11.616;2023-05-23T01:49:34;12.80;;;11.65;;
4903;SDS011;2467;48.142;11.616;2023-05-23T01:50:07;12.05;;;10.95;;
4903;SDS011;2467;48.142;11.616;2023-05-23T01:50:42;12.73;;;11.40;;
4903;SDS011;2467;48.142;11.616;2023-05-23T01:51:15;12.20;;;11.25;;
4903;SDS011;2467;48.142;11.616;2023-05-23T01:51:47;12.57;;;11.57;;
4903;SDS011;2467;48.142;11.616;2023-05-23T01:52:20;12.52;;;11.32;;
4903;SDS011;2467;48.142;11.616;2023-05-23T01:52:53;13.00;;;12.00;;
4903;SDS011;2467;48.142;11.616;2023-05-23T01:53:26;12.77;;;11.73;;
4903;SDS011;2467;48.142;11.616;2023-05-23T01:54:00;12.13;;;11.23;;
4903;SDS011;2467;48.142;11.616;2023-05-23T01:54:32;12.77;;;11.68;;
4903;SDS011;2467;48.142;11.616;2023-05-23T01:55:05;13.30;;;12.20;;
4903;SDS011;2467;48.142;11.616;2023-05-23T01:55:42;14.88;;;13.68;;
4903;SDS011;2467;48.142;11.616;2023-05-23T01:56:15;12.73;;;11.63;;
4903;SDS011;2467;48.142;11.616;2023-05-23T01:56:47;13.38;;;11.80;;
4903;SDS011;2467;48.142;11.616;2023-05-23T01:57:20;12.45;;;11.40;;
4903;SDS011;2467;48.142;11.616;2023-05-23T01:57:54;13.25;;;12.13;;
4903;SDS011;2467;48.142;11.616;2023-05-23T01:58:27;12.23;;;11.23;;
4903;SDS011;2467;48.142;11.616;2023-05-23T01:59:00;13.52;;;12.43;;
4903;SDS011;2467;48.142;11.616;2023-05-23T01:59:33;13.35;;;12.25;;
4903;SDS011;2467;48.142;11.616;2023-05-23T02:00:06;12.98;;;11.98;;
4903;SDS011;2467;48.142;11.616;2023-05-23T02:00:41;13.05;;;12.05;;
4903;SDS011;2467;48.142;11.616;2023-05-23T02:01:14;13.90;;;12.70;;
4903;SDS011;2467;48.142;11.616;2023-05-23T02:01:46;13.88;;;12.75;;
4903;SDS011;2467;48.142;11.616;2023-05-23T02:02:18;13.73;;;12.60;;
4903;SDS011;2467;48.142;11.616;2023-05-23T02:02:51;13.70;;;12.57;;
4903;SDS011;2467;48.142;11.616;2023-05-23T02:03:23;12.30;;;11.40;;
4903;SDS011;2467;48.142;11.616;2023-05-23T02:03:55;13.55;;;12.40;;
4903;SDS011;2467;48.142;11.616;2023-05-23T02:04:28;13.40;;;12.38;;
4903;SDS011;2467;48.142;11.616;2023-05-23T02:05:00;12.68;;;11.68;;
4903;SDS011;2467;48.142;11.616;2023-05-23T02:05:32;12.93;;;11.93;;
4903;SDS011;2467;48.142;11.616;2023-05-23T02:06:05;12.55;;;11.50;;
4903;SDS011;2467;48.142;11.616;2023-05-23T02:06:37;12.98;;;11.68;;
4903;SDS011;2467;48.142;11.616;2023-05-23T02:07:09;13.30;;;12.18;;
4903;SDS011;2467;48.142;11.616;2023-05-23T02:07:42;13.20;;;12.10;;
4903;SDS011;2467;48.142;11.616;2023-05-23T02:08:14;13.85;;;12.70;;
4903;SDS011;2467;48.142;11.616;2023-05-23T02:08:46;13.02;;;11.90;;
4903;SDS011;2467;48.142;11.616;2023-05-23T02:09:17;12.05;;;11.15;;
4903;SDS011;2467;48.142;11.616;2023-05-23T02:09:51;13.13;;;11.85;;
4903;SDS011;2467;48.142;11.616;2023-05-23T02:10:23;13.50;;;12.40;;
4903;SDS011;2467;48.142;11.616;2023-05-23T02:10:55;13.30;;;12.05;;
4903;SDS011;2467;48.142;11.616;2023-05-23T02:11:27;13.60;;;12.50;;
4903;SDS011;2467;48.142;11.616;2023-05-23T02:11:59;14.15;;;13.00;;
4903;SDS011;2467;48.142;11.616;2023-05-23T02:12:31;14.10;;;12.90;;
4903;SDS011;2467;48.142;11.616;2023-05-23T02:13:04;12.70;;;11.60;;
4903;SDS011;2467;48.142;11.616;2023-05-23T02:13:37;13.25;;;12.02;;
4903;SDS011;2467;48.142;11.616;2023-05-23T02:14:09;13.50;;;12.20;;
4903;SDS011;2467;48.142;11.616;2023-05-23T02:14:41;15.95;;;12.05;;
4903;SDS011;2467;48.142;11.616;2023-05-23T02:15:13;14.65;;;13.45;;
4903;SDS011;2467;48.142;11.616;2023-05-23T02:15:47;14.48;;;13.38;;
4903;SDS011;2467;48.142;11.616;2023-05-23T02:16:19;14.77;;;13.48;;
4903;SDS011;2467;48.142;11.616;2023-05-23T02:16:51;13.40;;;12.35;;
4903;SDS011;2467;48.142;11.616;2023-05-23T02:17:24;13.73;;;12.52;;
4903;SDS011;2467;48.142;11.616;2023-05-23T02:17:56;13.73;;;12.63;;
4903;SDS011;2467;48.142;11.616;2023-05-23T02:18:28;13.48;;;12.27;;
4903;SDS011;2467;48.142;11.616;2023-05-23T02:19:01;13.57;;;12.23;;
4903;SDS011;2467;48.142;11.616;2023-05-23T02:19:34;13.35;;;12.20;;
4903;SDS011;2467;48.142;11.616;2023-05-23T02:20:07;13.30;;;12.13;;
4903;SDS011;2467;48.142;11.616;2023-05-23T02:20:41;13.43;;;12.27;;
4903;SDS011;2467;48.142;11.616;2023-05-23T02:21:12;12.27;;;11.38;;
4903;SDS011;2467;48.142;11.616;2023-05-23T02:21:44;14.13;;;12.80;;
4903;SDS011;2467;48.142;11.616;2023-05-23T02:22:18;13.95;;;12.80;;
4903;SDS011;2467;48.142;11.616;2023-05-23T02:22:54;13.40;;;12.38;;
4903;SDS011;2467;48.142;11.616;2023-05-23T02:23:26;14.00;;;12.70;;
4903;SDS011;2467;48.142;11.616;2023-05-23T02:23:59;13.40;;;12.25;;
4903;SDS011;2467;48.142;11.616;2023-05-23T02:24:30;14.43;;;13.02;;
4903;SDS011;2467;48.142;11.616;2023-05-23T02:25:03;13.48;;;12.48;;
4903;SDS011;2467;48.142;11.616;2023-05-23T02:25:36;14.05;;;12.85;;
4903;SDS011;2467;48.142;11.616;2023-05-23T02:26:08;13.40;;;12.20;;
4903;SDS011;2467;48.142;11.616;2023-05-23T02:26:40;13.35;;;12.25;;
4903;SDS011;2467;48.142;11.616;2023-05-23T02:27:13;13.63;;;12.50;;
4903;SDS011;2467;48.142;11.616;2023-05-23T02:27:45;14.20;;;12.82;;
4903;SDS011;2467;48.142;11.616;2023-05-23T02:28:18;13.10;;;11.65;;
4903;SDS011;2467;48.142;11.616;2023-05-23T02:28:51;14.25;;;12.93;;
4903;SDS011;2467;48.142;11.616;2023-05-23T02:29:22;14.88;;;13.68;;
4903;SDS011;2467;48.142;11.616;2023-05-23T02:29:54;15.93;;;13.15;;
4903;SDS011;2467;48.142;11.616;2023-05-23T02:30:27;12.38;;;11.25;;
4903;SDS011;2467;48.142;11.616;2023-05-23T02:30:59;14.43;;;13.20;;
4903;SDS011;2467;48.142;11.616;2023-05-23T02:31:32;13.75;;;12.65;;
4903;SDS011;2467;48.142;11.616;2023-05-23T02:32:05;13.07;;;11.88;;
4903;SDS011;2467;48.142;11.616;2023-05-23T02:32:37;14.13;;;13.02;;
4903;SDS011;2467;48.142;11.616;2023-05-23T02:33:09;13.32;;;12.27;;
4903;SDS011;2467;48.142;11.616;2023-05-23T02:33:42;14.65;;;13.45;;
4903;SDS011;2467;48.142;11.616;2023-05-23T02:34:14;14.80;;;13.40;;
4903;SDS011;2467;48.142;11.616;2023-05-23T02:34:46;13.57;;;12.27;;
4903;SDS011;2467;48.142;11.616;2023-05-23T02:35:20;15.52;;;14.13;;
4903;SDS011;2467;48.142;11.616;2023-05-23T02:35:53;14.93;;;13.52;;
4903;SDS011;2467;48.142;11.616;2023-05-23T02:36:25;14.40;;;13.20;;
4903;SDS011;2467;48.142;11.616;2023-05-23T02:36:58;14.73;;;13.50;;
4903;SDS011;2467;48.142;11.616;2023-05-23T02:37:30;12.90;;;11.80;;
4903;SDS011;2467;48.142;11.616;2023-05-23T02:38:02;13.95;;;12.90;;
4903;SDS011;2467;48.142;11.616;2023-05-23T02:38:34;13.63;;;12.55;;
4903;SDS011;2467;48.142;11.616;2023-05-23T02:39:06;15.63;;;14.13;;
4903;SDS011;2467;48.142;11.616;2023-05-23T02:39:38;13.93;;;12.82;;
4903;SDS011;2467;48.142;11.616;2023-05-23T02:40:11;14.50;;;13.30;;
4903;SDS011;2467;48.142;11.616;2023-05-23T02:40:43;14.80;;;13.50;;
4903;SDS011;2467;48.142;11.616;2023-05-23T02:41:15;13.23;;;12.05;;
4903;SDS011;2467;48.142;11.616;2023-05-23T02:41:48;15.18;;;13.80;;
4903;SDS011;2467;48.142;11.616;2023-05-23T02:42:20;13.18;;;12.20;;
4903;SDS011;2467;48.142;11.616;2023-05-23T02:42:52;14.32;;;13.20;;
4903;SDS011;2467;48.142;11.616;2023-05-23T02:43:28;14.20;;;13.07;;
4903;SDS011;2467;48.142;11.616;2023-05-23T02:44:00;14.88;;;13.68;;
4903;SDS011;2467;48.142;11.616;2023-05-23T02:44:32;13.88;;;12.88;;
4903;SDS011;2467;48.142;11.616;2023-05-23T02:45:05;15.23;;;13.93;;
4903;SDS011;2467;48.142;11.616;2023-05-23T02:45:38;14.27;;;13.07;;
4903;SDS011;2467;48.142;11.616;2023-05-23T02:46:10;14.05;;;12.73;;
4903;SDS011;2467;48.142;11.616;2023-05-23T02:46:43;14.82;;;13.55;;
4903;SDS011;2467;48.142;11.616;2023-05-23T02:47:16;12.73;;;11.50;;
4903;SDS011;2467;48.142;11.616;2023-05-23T02:47:47;14.38;;;13.18;;
4903;SDS011;2467;48.142;11.616;2023-05-23T02:48:20;14.60;;;13.45;;
4903;SDS011;2467;48.142;11.616;2023-05-23T02:48:52;14.85;;;13.75;;
4903;SDS011;2467;48.142;11.616;2023-05-23T02:49:24;14.38;;;13.13;;
4903;SDS011;2467;48.142;11.616;2023-05-23T02:49:57;14.80;;;13.48;;
4903;SDS011;2467;48.142;11.616;2023-05-23T02:50:29;15.65;;;14.40;;
4903;SDS011;2467;48.142;11.616;2023-05-23T02:51:01;15.48;;;14.18;;
4903;SDS011;2467;48.142;11.616;2023-05-23T02:51:34;14.88;;;13.57;;
4903;SDS011;2467;48.142;11.616;2023-05-23T02:52:06;14.45;;;13.35;;
4903;SDS011;2467;48.142;11.616;2023-05-23T02:52:38;13.70;;;12.60;;
4903;SDS011;2467;48.142;11.616;2023-05-23T02:53:12;14.85;;;13.68;;
4903;SDS011;2467;48.142;11.616;2023-05-23T02:53:44;14.75;;;13.50;;
4903;SDS011;2467;48.142;11.616;2023-05-23T02:54:16;15.05;;;13.65;;
4903;SDS011;2467;48.142;11.616;2023-05-23T02:54:48;13.95;;;12.85;;
4903;SDS011;2467;48.142;11.616;2023-05-23T02:55:20;15.40;;;14.20;;
4903;SDS011;2467;48.142;11.616;2023-05-23T02:55:52;15.73;;;14.35;;
4903;SDS011;2467;48.142;11.616;2023-05-23T02:56:24;16.38;;;15.05;;
4903;SDS011;2467;48.142;11.616;2023-05-23T02:56:57;15.38;;;13.85;;
4903;SDS011;2467;48.142;11.616;2023-05-23T02:57:29;15.65;;;14.35;;
4903;SDS011;2467;48.142;11.616;2023-05-23T02:58:01;14.30;;;13.20;;
4903;SDS011;2467;48.142;11.616;2023-05-23T02:58:37;15.20;;;13.98;;
4903;SDS011;2467;48.142;11.616;2023-05-23T02:59:10;15.68;;;14.07;;
4903;SDS011;2467;48.142;11.616;2023-05-23T02:59:42;13.57;;;12.43;;
4903;SDS011;2467;48.142;11.616;2023-05-23T03:00:14;17.25;;;15.65;;
4903;SDS011;2467;48.142;11.616;2023-05-23T03:00:47;16.20;;;14.90;;
4903;SDS011;2467;48.142;11.616;2023-05-23T03:01:19;15.75;;;14.45;;
4903;SDS011;2467;48.142;11.616;2023-05-23T03:01:51;14.93;;;13.38;;
4903;SDS011;2467;48.142;11.616;2023-05-23T03:02:23;16.10;;;14.60;;
4903;SDS011;2467;48.142;11.616;2023-05-23T03:02:57;14.55;;;13.35;;
4903;SDS011;2467;48.142;11.616;2023-05-23T03:03:29;14.40;;;13.30;;
4903;SDS011;2467;48.142;11.616;2023-05-23T03:04:01;15.77;;;14.43;;
4903;SDS011;2467;48.142;11.616;2023-05-23T03:04:34;15.60;;;14.35;;
4903;SDS011;2467;48.142;11.616;2023-05-23T03:05:08;15.13;;;13.77;;
4903;SDS011;2467;48.142;11.616;2023-05-23T03:05:40;15.18;;;13.70;;
4903;SDS011;2467;48.142;11.616;2023-05-23T03:06:13;14.75;;;13.55;;
4903;SDS011;2467;48.142;11.616;2023-05-23T03:06:47;15.70;;;14.38;;
4903;SDS011;2467;48.142;11.616;2023-05-23T03:07:18;14.60;;;13.40;;
4903;SDS011;2467;48.142;11.616;2023-05-23T03:07:58;15.18;;;13.90;;
4903;SDS011;2467;48.142;11.616;2023-05-23T03:08:30;16.25;;;14.40;;
4903;SDS011;2467;48.142;11.616;2023-05-23T03:09:03;16.05;;;14.60;;
4903;SDS011;2467;48.142;11.616;2023-05-23T03:09:35;14.98;;;13.68;;
4903;SDS011;2467;48.142;11.616;2023-05-23T03:10:07;16.50;;;14.90;;
4903;SDS011;2467;48.142;11.616;2023-05-23T03:10:41;16.30;;;15.00;;
4903;SDS011;2467;48.142;11.616;2023-05-23T03:11:13;14.05;;;12.95;;
4903;SDS011;2467;48.142;11.616;2023-05-23T03:11:45;15.60;;;14.20;;
4903;SDS011;2467;48.142;11.616;2023-05-23T03:12:18;15.57;;;13.98;;
4903;SDS011;2467;48.142;11.616;2023-05-23T03:12:49;15.30;;;13.90;;
4903;SDS011;2467;48.142;11.616;2023-05-23T03:13:21;15.25;;;13.85;;
4903;SDS011;2467;48.142;11.616;2023-05-23T03:13:55;14.15;;;13.02;;
4903;SDS011;2467;48.142;11.616;2023-05-23T03:14:27;15.75;;;14.35;;
4903;SDS011;2467;48.142;11.616;2023-05-23T03:14:59;13.68;;;12.57;;
4903;SDS011;2467;48.142;11.616;2023-05-23T03:15:32;15.90;;;14.57;;
4903;SDS011;2467;48.142;11.616;2023-05-23T03:16:04;17.55;;;15.77;;
4903;SDS011;2467;48.142;11.616;2023-05-23T03:16:36;15.20;;;13.70;;
4903;SDS011;2467;48.142;11.616;2023-05-23T03:17:10;15.55;;;14.20;;
4903;SDS011;2467;48.142;11.616;2023-05-23T03:17:44;15.15;;;14.00;;
4903;SDS011;2467;48.142;11.616;2023-05-23T03:18:16;15.88;;;14.57;;
4903;SDS011;2467;48.142;11.616;2023-05-23T03:18:48;15.68;;;14.40;;
4903;SDS011;2467;48.142;11.616;2023-05-23T03:19:21;15.38;;;14.07;;
4903;SDS011;2467;48.142;11.616;2023-05-23T03:19:53;15.60;;;14.15;;
4903;SDS011;2467;48.142;11.616;2023-05-23T03:20:24;16.70;;;15.35;;